createdAt,value
2022-10-17T04:25:55.246Z,17.80
2022-10-17T04:26:56.425Z,17.90
2022-10-17T04:27:56.271Z,18.90
2022-10-17T04:28:56.168Z,18.40
2022-10-17T04:29:56.263Z,14.90
2022-10-17T04:30:56.298Z,16.50
2022-10-17T04:31:56.407Z,19.80
2022-10-17T04:32:56.387Z,16.30
2022-10-17T04:33:56.120Z,18.00
2022-10-17T04:34:56.124Z,20.00
2022-10-17T04:35:56.307Z,17.10
2022-10-17T04:36:56.095Z,15.20
2022-10-17T04:37:56.162Z,20.90
2022-10-17T04:38:56.055Z,17.90
2022-10-17T04:39:56.757Z,16.20
2022-10-17T04:40:56.213Z,17.80
2022-10-17T04:41:56.039Z,18.20
2022-10-17T04:42:56.025Z,19.90
2022-10-17T04:43:56.008Z,16.70
2022-10-17T04:44:56.181Z,17.40
2022-10-17T04:46:58.418Z,16.80
2022-10-17T04:47:08.387Z,16.40
2022-10-17T04:48:08.597Z,17.70
2022-10-17T04:49:08.959Z,16.30
2022-10-17T04:50:08.239Z,19.50
2022-10-17T04:51:08.274Z,16.10
2022-10-17T04:52:08.227Z,16.00
2022-10-17T04:53:08.237Z,15.50
2022-10-17T04:54:08.703Z,18.60
2022-10-17T04:55:08.445Z,15.00
2022-10-17T04:56:08.220Z,15.50
2022-10-17T04:57:08.201Z,16.90
2022-10-17T04:58:08.243Z,17.90
2022-10-17T04:59:08.184Z,21.60
2022-10-17T05:01:08.226Z,20.20
2022-10-17T05:02:08.561Z,16.70
2022-10-17T05:03:08.201Z,17.00
2022-10-17T05:04:09.001Z,17.60
2022-10-17T05:05:08.429Z,19.90
2022-10-17T05:06:08.092Z,15.40
2022-10-17T05:07:08.549Z,16.50
2022-10-17T05:08:08.089Z,14.70
2022-10-17T05:09:08.253Z,19.40
2022-10-17T05:10:08.052Z,21.50
2022-10-17T05:11:08.017Z,20.60
2022-10-17T05:12:10.273Z,15.80
2022-10-17T05:13:08.009Z,16.30
2022-10-17T05:14:08.256Z,15.10
2022-10-17T05:15:09.049Z,16.30
2022-10-17T05:16:08.240Z,15.50
2022-10-17T05:17:07.976Z,16.70
2022-10-17T05:18:08.045Z,18.40
2022-10-17T05:19:08.257Z,18.90
2022-10-17T05:20:07.986Z,16.80
2022-10-17T05:21:06.908Z,16.70
2022-10-17T05:22:08.194Z,17.70
2022-10-17T05:23:07.893Z,16.00
2022-10-17T05:24:07.892Z,18.50
2022-10-17T05:25:07.875Z,17.90
2022-10-17T05:26:07.895Z,17.10
2022-10-17T05:27:07.857Z,16.80
2022-10-17T05:28:07.857Z,15.10
2022-10-17T05:29:08.178Z,18.70
2022-10-17T05:30:08.047Z,16.80
2022-10-17T05:31:07.799Z,18.10
2022-10-17T05:32:07.785Z,17.90
2022-10-17T05:33:07.809Z,16.50
2022-10-17T05:34:10.239Z,16.20
2022-10-17T05:35:07.781Z,19.40
2022-10-17T05:36:07.742Z,16.20
2022-10-17T05:37:07.744Z,15.70
2022-10-17T05:38:07.741Z,18.10
2022-10-17T05:39:07.736Z,17.90
2022-10-17T05:40:07.815Z,19.60
2022-10-17T05:41:07.960Z,17.60
2022-10-17T05:42:07.873Z,18.60
2022-10-17T05:43:07.692Z,17.70
2022-10-17T05:44:07.960Z,19.30
2022-10-17T05:45:08.007Z,18.20
2022-10-17T05:46:07.944Z,17.80
2022-10-17T05:47:07.609Z,16.70
2022-10-17T05:48:07.610Z,18.40
2022-10-17T05:49:15.056Z,19.90
2022-10-17T05:50:07.591Z,17.40
2022-10-17T05:51:07.762Z,16.20
2022-10-17T05:52:07.608Z,17.70
2022-10-17T05:53:07.554Z,16.50
2022-10-17T05:54:07.577Z,18.30
2022-10-17T05:55:07.725Z,16.40
2022-10-17T05:56:07.522Z,16.60
2022-10-17T05:57:07.512Z,16.90
2022-10-17T05:58:11.734Z,17.30
2022-10-17T05:59:07.538Z,19.40
2022-10-17T06:00:07.476Z,17.70
2022-10-17T06:01:10.646Z,19.30
2022-10-17T06:02:07.495Z,16.70
2022-10-17T06:03:07.460Z,15.70
2022-10-17T06:04:07.470Z,18.50
2022-10-17T06:05:07.411Z,17.40
2022-10-17T06:06:07.412Z,18.50
2022-10-17T06:07:07.417Z,15.90
2022-10-17T06:08:07.529Z,19.10
2022-10-17T06:09:07.537Z,15.70
2022-10-17T06:10:08.249Z,17.40
2022-10-17T06:11:10.031Z,17.80
2022-10-17T06:12:08.792Z,17.50
2022-10-17T06:13:07.436Z,18.40
2022-10-17T06:14:07.372Z,15.30
2022-10-17T06:15:07.569Z,15.70
2022-10-17T06:16:07.728Z,15.80
2022-10-17T06:17:10.937Z,17.70
2022-10-17T06:18:07.378Z,15.50
2022-10-17T10:51:30.974Z,5.60
2022-10-17T11:03:27.995Z,5.90
2022-10-17T11:08:32.325Z,5.90
2022-10-17T11:09:33.940Z,6.00
2022-10-17T11:10:33.244Z,5.90
2022-10-17T11:11:33.230Z,6.40
2022-10-17T11:12:33.215Z,6.10
2022-10-17T11:13:33.180Z,6.10
2022-10-17T11:14:33.416Z,6.80
2022-10-17T11:15:33.197Z,6.30
2022-10-17T11:16:33.137Z,6.50
2022-10-17T11:17:33.318Z,6.20
2022-10-17T11:18:33.124Z,6.20
2022-10-17T11:19:33.740Z,6.30
2022-10-17T11:20:33.191Z,6.60
2022-10-17T11:21:33.159Z,6.70
2022-10-17T11:22:33.519Z,6.60
2022-10-17T11:23:33.189Z,6.70
2022-10-17T11:24:33.114Z,6.80
2022-10-17T11:25:33.192Z,6.60
2022-10-17T11:39:02.366Z,6.70
2022-10-17T11:40:03.423Z,6.80
2022-10-17T11:41:03.349Z,6.60
2022-10-17T11:42:03.579Z,7.00
2022-10-17T11:43:03.586Z,6.30
2022-10-17T11:55:04.322Z,7.40
2022-10-17T11:56:05.070Z,7.40
2022-10-17T11:57:04.997Z,7.30
2022-10-17T11:58:04.984Z,7.60
2022-10-17T11:59:05.051Z,7.10
2022-10-17T12:00:06.403Z,7.30
2022-10-17T12:01:05.024Z,7.30
2022-10-17T12:02:04.940Z,8.30
2022-10-17T12:03:05.632Z,7.60
2022-10-17T12:04:05.617Z,7.60
2022-10-17T12:05:05.065Z,8.00
2022-10-17T12:06:09.197Z,7.40
2022-10-17T12:07:04.950Z,7.70
2022-10-17T12:08:04.895Z,8.00
2022-10-17T12:09:05.803Z,8.30
2022-10-17T12:11:12.055Z,7.70
2022-10-17T12:11:17.057Z,8.20
2022-10-17T12:12:17.724Z,7.60
2022-10-17T12:13:17.012Z,8.10
2022-10-17T12:15:23.999Z,7.50
2022-10-17T12:15:29.025Z,7.70
2022-10-17T13:56:22.886Z,10.20
2022-10-17T13:57:01.101Z,10.10
2022-10-17T15:30:11.520Z,7.00
2022-10-17T15:31:11.512Z,7.30
2022-10-17T15:32:11.249Z,7.40
2022-10-17T15:33:11.312Z,7.50
2022-10-17T15:34:11.259Z,7.70
2022-10-17T15:35:11.257Z,7.80
2022-10-17T15:36:14.009Z,7.80
2022-10-17T15:37:11.425Z,7.60
2022-10-17T15:38:11.269Z,7.90
2022-10-17T15:40:51.263Z,7.60
2022-10-17T15:41:52.229Z,7.60
2022-10-17T15:42:56.879Z,7.70
2022-10-17T15:47:46.677Z,8.20
2022-10-17T15:48:46.430Z,8.30
2022-10-17T15:49:46.409Z,7.80
2022-10-17T15:50:46.369Z,7.80
2022-10-17T15:51:47.749Z,8.20
2022-10-17T15:52:46.307Z,8.20
2022-10-17T15:53:46.310Z,7.80
2022-10-17T15:54:46.331Z,7.60
2022-10-17T15:55:46.309Z,8.80
2022-10-17T15:56:46.274Z,8.00
2022-10-17T15:57:46.257Z,8.30
2022-10-17T15:58:46.206Z,8.80
2022-10-17T15:59:46.245Z,8.60
2022-10-17T16:00:46.346Z,8.70
2022-10-17T16:01:46.195Z,9.10
2022-10-17T16:02:46.220Z,8.70
2022-10-17T16:03:46.438Z,8.80
2022-10-17T16:07:30.686Z,9.40
2022-10-17T16:08:19.129Z,9.40
2022-10-17T16:10:24.786Z,9.30
2022-10-17T16:10:29.761Z,9.10
2022-10-17T16:28:21.073Z,9.20
2022-10-17T16:29:23.782Z,9.30
2022-10-17T16:31:22.273Z,9.90
2022-10-17T16:32:21.983Z,9.40
2022-10-17T16:33:21.991Z,9.20
2022-10-17T16:34:21.998Z,9.40
2022-10-17T16:35:21.974Z,9.60
2022-10-17T16:36:21.983Z,9.90
2022-10-17T16:37:21.904Z,9.90
2022-10-17T16:38:21.899Z,10.30
2022-10-17T16:39:23.814Z,10.80
2022-10-17T16:40:21.890Z,11.00
2022-10-17T16:41:21.956Z,10.70
2022-10-17T16:42:21.979Z,10.20
2022-10-17T16:43:21.883Z,10.20
2022-10-17T16:44:22.493Z,11.40
2022-10-17T16:45:21.843Z,10.40
2022-10-17T16:46:21.976Z,11.30
2022-10-17T16:47:22.663Z,10.80
2022-10-17T16:48:21.333Z,11.20
2022-10-17T16:49:22.028Z,11.30
2022-10-17T16:50:21.813Z,11.70
2022-10-17T16:51:21.861Z,12.00
2022-10-17T16:52:21.736Z,11.60
2022-10-17T16:53:28.511Z,11.80
2022-10-17T16:54:22.191Z,11.70
2022-10-17T16:55:27.543Z,12.30
2022-10-17T16:56:21.752Z,11.50
2022-10-17T16:57:21.693Z,11.60
2022-10-17T16:58:21.674Z,12.00
2022-10-17T16:59:22.332Z,11.30
2022-10-17T17:00:21.875Z,12.00
2022-10-17T17:45:10.088Z,11.40
2022-10-17T17:46:09.825Z,11.30
2022-10-17T17:47:08.089Z,11.30
2022-10-17T17:48:07.983Z,11.50
2022-10-17T17:49:08.242Z,12.30
2022-10-17T17:59:19.084Z,13.60
2022-10-17T18:00:20.150Z,13.70
2022-10-17T18:01:20.124Z,12.80
2022-10-17T18:34:21.027Z,9.10
2022-10-17T18:35:20.826Z,8.80
2022-10-17T18:36:21.039Z,9.00
2022-10-17T18:37:20.662Z,8.70
2022-10-17T18:42:26.729Z,7.70
2022-10-17T18:43:28.022Z,7.90
2022-10-17T18:44:27.807Z,8.80
2022-10-17T18:45:27.796Z,8.10
2022-10-17T18:46:28.080Z,8.60
2022-10-17T18:47:27.881Z,8.50
2022-10-17T18:48:27.674Z,9.50
2022-10-17T18:49:27.732Z,9.00
2022-10-17T18:50:27.664Z,8.20
2022-10-17T18:51:27.940Z,8.30
2022-10-17T18:52:27.899Z,8.70
2022-10-17T18:53:27.871Z,8.40
2022-10-17T18:54:27.659Z,8.20
2022-10-17T18:55:27.957Z,8.10
2022-10-17T18:56:27.607Z,8.70
2022-10-17T18:57:28.173Z,8.90
2022-10-17T18:58:27.598Z,9.10
2022-10-17T18:59:27.574Z,9.40
2022-10-17T19:00:27.654Z,8.90
2022-10-17T19:01:27.628Z,8.30
2022-10-17T19:02:27.504Z,8.50
2022-10-17T19:03:27.506Z,8.50
2022-10-17T19:04:27.486Z,7.70
2022-10-17T19:05:27.520Z,8.40
2022-10-17T19:06:27.518Z,7.80
2022-10-17T19:07:27.683Z,8.50
2022-10-17T19:08:27.460Z,7.80
2022-10-17T19:09:27.461Z,8.00
2022-10-17T19:10:27.444Z,7.80
2022-10-17T19:11:27.435Z,8.30
2022-10-17T19:12:27.440Z,8.80
2022-10-17T19:13:27.413Z,8.10
2022-10-17T19:14:27.391Z,8.70
2022-10-17T19:15:27.394Z,8.70
2022-10-17T19:16:27.385Z,8.00
2022-10-17T19:17:27.548Z,8.50
2022-10-17T19:18:27.368Z,8.20
2022-10-17T19:19:27.346Z,8.70
2022-10-17T19:20:27.340Z,8.20
2022-10-17T19:21:27.293Z,8.50
2022-10-17T19:22:27.319Z,8.90
2022-10-17T19:23:27.296Z,9.00
2022-10-17T19:24:27.267Z,9.00
2022-10-17T19:25:27.311Z,8.70
2022-10-17T19:26:27.255Z,8.00
2022-10-17T19:27:27.343Z,8.80
2022-10-17T19:28:27.286Z,8.90
2022-10-17T19:29:27.220Z,9.00
2022-10-17T19:30:27.271Z,8.90
2022-10-17T19:31:27.497Z,8.30
2022-10-17T19:32:27.237Z,9.20
2022-10-17T19:34:27.156Z,9.00
2022-10-17T19:35:27.170Z,10.20
2022-10-17T19:36:30.547Z,9.40
2022-10-17T19:37:27.276Z,10.20
2022-10-17T19:38:27.143Z,10.10
2022-10-17T19:39:27.233Z,9.50
2022-10-17T19:40:27.175Z,10.10
2022-10-17T19:41:27.124Z,9.50
2022-10-17T19:42:27.104Z,11.30
2022-10-17T19:43:27.041Z,11.30
2022-10-17T19:44:29.291Z,13.10
2022-10-17T19:45:27.121Z,13.10
2022-10-17T19:46:27.004Z,13.10
2022-10-17T19:47:27.010Z,11.00
2022-10-17T19:48:26.981Z,10.90
2022-10-17T19:49:27.014Z,13.30
2022-10-17T19:50:27.000Z,13.80
2022-10-17T19:51:26.973Z,12.40
2022-10-17T19:52:27.049Z,12.70
2022-10-17T19:53:26.940Z,14.90
2022-10-17T19:54:26.920Z,12.30
2022-10-17T19:55:26.962Z,18.30
2022-10-17T19:56:26.911Z,16.70
2022-10-17T19:57:26.947Z,19.40
2022-10-17T19:58:26.901Z,15.70
2022-10-17T19:59:26.877Z,17.90
2022-10-17T20:00:26.911Z,19.80
2022-10-17T20:01:26.916Z,15.80
2022-10-17T20:02:26.858Z,22.10
2022-10-17T20:03:26.839Z,20.10
2022-10-17T20:04:26.860Z,21.70
2022-10-17T20:05:28.271Z,20.10
2022-10-17T20:06:26.908Z,22.30
2022-10-17T20:07:26.795Z,24.00
2022-10-17T20:09:28.182Z,24.00
2022-10-17T20:21:05.848Z,28.80
2022-10-17T20:22:06.788Z,30.00
2022-10-17T20:23:07.085Z,27.80
2022-10-17T20:24:06.777Z,29.80
2022-10-17T20:25:07.707Z,26.50
2022-10-17T20:27:06.701Z,28.90
2022-10-17T20:28:06.661Z,30.10
2022-10-17T20:29:07.009Z,31.20
2022-10-17T20:30:06.945Z,29.90
2022-10-17T20:31:06.719Z,31.70
2022-10-17T20:32:06.658Z,31.80
2022-10-17T20:33:06.616Z,33.00
2022-10-17T20:34:06.833Z,32.20
2022-10-17T20:35:06.617Z,30.90
2022-10-17T20:36:06.575Z,34.50
2022-10-17T20:37:06.571Z,33.20
2022-10-17T20:38:06.830Z,34.50
2022-10-17T20:39:06.580Z,34.80
2022-10-17T20:40:32.883Z,34.50
2022-10-17T20:41:06.528Z,34.80
2022-10-17T20:42:06.493Z,34.80
2022-10-17T20:43:06.516Z,34.30
2022-10-17T20:44:06.485Z,36.90
2022-10-17T20:45:06.702Z,34.00
2022-10-17T20:46:22.737Z,33.20
2022-10-17T20:47:15.909Z,34.50
2022-10-17T20:48:06.448Z,36.60
2022-10-17T20:49:06.509Z,36.00
2022-10-17T20:50:06.590Z,34.30
2022-10-17T20:51:06.508Z,36.60
2022-10-17T20:52:06.426Z,33.70
2022-10-17T20:53:31.788Z,35.70
2022-10-17T20:54:06.416Z,28.20
2022-10-17T20:55:06.380Z,36.50
2022-10-17T20:56:06.420Z,38.00
2022-10-17T20:57:06.652Z,39.10
2022-10-17T20:58:06.921Z,38.80
2022-10-17T20:59:06.290Z,36.30
2022-10-17T21:00:06.632Z,35.90
2022-10-17T21:01:06.293Z,35.60
2022-10-17T21:02:06.360Z,33.50
2022-10-17T21:03:06.348Z,34.70
2022-10-17T21:04:33.360Z,35.90
2022-10-17T21:05:06.317Z,37.60
2022-10-17T21:06:06.304Z,38.60
2022-10-17T21:07:06.294Z,40.60
2022-10-17T21:08:06.233Z,39.80
2022-10-17T21:09:06.228Z,38.50
2022-10-17T21:10:30.699Z,38.70
2022-10-17T21:11:10.929Z,36.10
2022-10-17T21:15:30.061Z,31.20
2022-10-17T21:16:30.975Z,31.50
2022-10-17T21:17:30.967Z,33.80
2022-10-17T21:18:30.982Z,34.70
2022-10-17T21:19:30.986Z,32.80
2022-10-17T21:20:31.053Z,32.90
2022-10-17T21:21:31.143Z,36.60
2022-10-17T21:22:31.402Z,37.30
2022-10-17T21:23:31.734Z,34.00
2022-10-17T21:24:31.008Z,34.10
2022-10-17T21:25:30.930Z,27.50
2022-10-17T21:26:31.112Z,30.30
2022-10-17T21:27:30.887Z,31.20
2022-10-17T21:28:30.858Z,35.00
2022-10-17T21:29:30.863Z,32.50
2022-10-17T21:30:30.967Z,25.80
2022-10-17T21:31:31.680Z,25.50
2022-10-17T21:32:40.222Z,28.20
2022-10-17T21:33:30.798Z,27.20
2022-10-17T21:34:31.023Z,28.50
2022-10-17T21:35:30.818Z,27.60
2022-10-17T21:36:30.753Z,29.90
2022-10-17T21:37:30.786Z,34.90
2022-10-17T21:38:30.771Z,29.30
2022-10-17T21:39:30.767Z,35.40
2022-10-17T21:40:30.936Z,36.80
2022-10-17T21:41:30.731Z,30.10
2022-10-17T21:42:31.373Z,30.00
2022-10-17T21:43:30.707Z,30.00
2022-10-17T21:44:30.831Z,33.60
2022-10-17T21:45:30.698Z,30.00
2022-10-17T21:46:30.661Z,32.90
2022-10-17T21:47:30.638Z,27.20
2022-10-17T21:48:30.653Z,31.50
2022-10-17T21:49:30.614Z,25.00
2022-10-17T21:50:30.666Z,32.90
2022-10-17T21:51:30.592Z,29.20
2022-10-17T21:52:30.891Z,29.80
2022-10-17T21:53:30.688Z,32.00
2022-10-17T21:54:30.686Z,33.70
2022-10-17T21:55:30.827Z,31.00
2022-10-17T21:56:30.558Z,32.80
2022-10-17T21:57:30.579Z,23.90
2022-10-17T21:58:30.766Z,25.80
2022-10-17T21:59:30.519Z,26.80
2022-10-17T22:00:30.515Z,29.70
2022-10-17T22:01:30.612Z,22.30
2022-10-17T22:02:30.744Z,27.50
2022-10-17T22:03:30.462Z,26.70
2022-10-17T22:04:30.445Z,27.20
2022-10-17T22:05:30.450Z,31.30
2022-10-17T22:06:39.724Z,32.00
2022-10-17T22:07:30.429Z,23.80
2022-10-17T22:08:30.793Z,28.50
2022-10-17T22:09:30.660Z,27.20
2022-10-17T22:10:30.449Z,26.70
2022-10-17T22:11:30.388Z,28.40
2022-10-17T22:12:30.622Z,21.10
2022-10-17T22:13:30.335Z,26.60
2022-10-17T22:14:30.380Z,34.70
2022-10-17T22:15:30.389Z,36.20
2022-10-17T22:16:31.177Z,24.60
2022-10-17T22:17:30.664Z,34.30
2022-10-17T22:18:30.292Z,36.50
2022-10-17T22:19:30.309Z,32.30
2022-10-17T22:20:30.395Z,32.50
2022-10-17T22:21:30.288Z,38.90
2022-10-17T22:22:30.235Z,30.10
2022-10-17T22:23:30.255Z,33.70
2022-10-17T22:24:30.269Z,28.50
2022-10-17T22:25:30.302Z,35.00
2022-10-17T22:26:30.202Z,25.20
2022-10-17T22:27:30.491Z,32.30
2022-10-17T22:28:30.265Z,34.50
2022-10-17T22:29:30.244Z,29.40
2022-10-17T22:30:30.404Z,25.70
2022-10-17T22:31:30.165Z,33.90
2022-10-17T22:32:30.218Z,22.00
2022-10-17T22:33:30.209Z,37.20
2022-10-17T22:34:30.155Z,34.10
2022-10-17T22:35:30.143Z,33.70
2022-10-17T22:36:30.330Z,37.70
2022-10-17T22:37:30.422Z,38.20
2022-10-17T22:38:30.150Z,30.10
2022-10-17T22:39:30.149Z,31.90
2022-10-17T22:40:30.171Z,36.40
2022-10-17T22:41:30.660Z,29.80
2022-10-17T22:42:30.080Z,32.50
2022-10-17T22:43:30.023Z,35.80
2022-10-17T22:44:30.040Z,32.20
2022-10-17T22:45:30.034Z,31.30
2022-10-17T22:46:29.993Z,35.90
2022-10-17T22:47:30.475Z,37.80
2022-10-17T22:48:29.971Z,34.50
2022-10-17T22:49:29.963Z,34.50
2022-10-17T22:50:29.961Z,34.80
2022-10-17T22:51:29.940Z,30.90
2022-10-17T22:52:30.343Z,36.60
2022-10-17T22:53:30.161Z,34.20
2022-10-17T22:54:29.908Z,30.50
2022-10-17T22:55:30.017Z,32.60
2022-10-17T22:56:29.888Z,30.40
2022-10-17T22:57:30.090Z,37.80
2022-10-17T22:58:29.848Z,29.80
2022-10-17T22:59:30.537Z,28.50
2022-10-17T23:00:29.888Z,31.40
2022-10-17T23:01:30.135Z,34.00
2022-10-17T23:02:30.703Z,30.30
2022-10-17T23:03:31.533Z,28.10
2022-10-17T23:04:30.105Z,33.40
2022-10-17T23:05:29.804Z,32.40
2022-10-17T23:06:30.396Z,27.40
2022-10-17T23:07:29.759Z,37.30
2022-10-17T23:08:30.441Z,27.80
2022-10-17T23:09:30.043Z,40.20
2022-10-17T23:10:29.757Z,31.10
2022-10-17T23:11:29.975Z,40.80
2022-10-17T23:12:30.649Z,42.00
2022-10-17T23:13:29.979Z,40.40
2022-10-17T23:14:31.196Z,35.00
2022-10-17T23:15:31.124Z,33.00
2022-10-17T23:16:30.326Z,29.00
2022-10-17T23:17:30.341Z,37.90
2022-10-17T23:19:29.860Z,41.10
2022-10-17T23:20:29.636Z,38.60
2022-10-17T23:21:29.789Z,36.40
2022-10-17T23:22:30.162Z,34.60
2022-10-17T23:23:30.306Z,32.90
2022-10-17T23:24:29.801Z,39.10
2022-10-17T23:25:29.825Z,36.00
2022-10-17T23:26:33.114Z,35.30
2022-10-17T23:28:29.587Z,36.70
2022-10-17T23:29:29.682Z,41.90
2022-10-17T23:30:30.344Z,37.20
2022-10-17T23:31:30.966Z,38.10
2022-10-17T23:32:30.042Z,36.70
2022-10-17T23:33:30.181Z,41.10
2022-10-17T23:34:30.161Z,38.80
2022-10-17T23:35:30.080Z,40.90
2022-10-17T23:36:29.722Z,44.70
2022-10-17T23:37:30.285Z,40.30
2022-10-17T23:38:30.206Z,41.10
2022-10-17T23:39:29.658Z,42.40
2022-10-17T23:40:29.418Z,39.60
2022-10-17T23:41:29.999Z,42.70
2022-10-17T23:42:31.138Z,42.80
2022-10-17T23:43:29.604Z,44.70
2022-10-17T23:44:29.598Z,45.70
2022-10-17T23:45:34.647Z,42.00
2022-10-17T23:46:29.570Z,44.10
2022-10-17T23:47:30.131Z,42.90
2022-10-17T23:48:30.018Z,43.50
2022-10-17T23:49:41.985Z,46.30
2022-10-17T23:50:30.156Z,37.40
2022-10-17T23:51:29.918Z,40.60
2022-10-17T23:52:29.512Z,37.00
2022-10-17T23:53:29.447Z,42.60
2022-10-17T23:54:29.409Z,40.10
2022-10-17T23:55:29.226Z,41.70
2022-10-17T23:56:29.358Z,34.50
2022-10-17T23:57:30.234Z,37.80
2022-10-17T23:58:30.060Z,41.50
2022-10-17T23:59:29.383Z,36.80
